Huvudsida
METAR-TAF:

METAR-TAF

Flygplatser :

Florø flygplats

Florø, Norge

latitud: 61-35N, longitud: 005-02E, höjd: 0 m

Aktuellt väderrapport

Denna rapport gjordes för 27 minuter sedan, klockan 17:50 UTC
Vind 16 kt från sydost
Temperatur 6°C
Fuktighet 39%
Tryck 1009 hPa
Sikt 10 km eller mer
Få moln på en höjd av 2500 ft
Brutna moln på en höjd av 7000 ft

METAR: ENFL 161750Z 13016KT 9999 FEW025 BKN070 06/M07 Q1009

Tid: 19:17 (18:17 UTC)

Väderprognos

Denna rapport gjordes för 1 timme och 17 minuter sedan, klockan 17:00 UTC
Prognos gäller från 16 kl. 18 UTC till 16 kl. 21 UTC
Vind 20 kt från ost/sydost
Sikt 10 km eller mer
Få moln på en höjd av 2500 ft
Spridda moln på en höjd av 7000 ft

TAF: ENFL 161700Z 1618/1621 12020KT 9999 FEW025 SCT070

Aktuella väderrapporter och prognoser från 4000 flygplatser (METAR- och TAF-rapporter).

De tillgängliga stationerna syns som gula och röda prickar på kartan.

För musen över prickarna för att se namnen på stationerna.

Klicka sedan för att få väderrapporter och prognoser.

För att ändra kartan: Klicka på de gröna knapparna med ett svart kors på för att zooma in; den gröna knappen med ett streck på för att zooma ut; eller på de gröna pilarna för angränsande kartor.


METAR-TAF: